Time;durP1;ratioP1;P1;durP2;ratioP2;P2;SDS_P1;SDS_P2;PMS_P1;PMS_P2;Temp;Humidity;BMP_temperature;BMP_pressure;BME280_temperature;BME280_humidity;BME280_pressure;Samples;Min_cycle;Max_cycle;Signal;HPM_P1;HPM_P2
2022/07/13 00:00:26;;;;;;;;;6.25;5.00;;;;;26.57;31.08;101697.84;4918894;28;45336;-45
2022/07/13 00:02:53;;;;;;;;;7.25;5.00;;;;;26.57;31.79;101689.84;4919336;28;45357;-50
2022/07/13 00:05:18;;;;;;;;;5.50;5.50;;;;;26.57;31.13;101694.34;4918644;28;45996;-44
2022/07/13 00:07:44;;;;;;;;;7.25;6.00;;;;;26.56;31.49;101696.16;4901380;28;45372;-43
2022/07/13 00:10:09;;;;;;;;;7.75;7.75;;;;;26.57;31.61;101695.19;4901434;28;45244;-43
2022/07/13 00:12:35;;;;;;;;;6.75;5.75;;;;;26.57;31.38;101697.84;4918787;28;45245;-44
2022/07/13 00:15:00;;;;;;;;;8.00;7.00;;;;;26.56;31.55;101690.84;4917600;28;45392;-44
2022/07/13 00:17:25;;;;;;;;;12.25;9.00;;;;;26.57;31.66;101697.00;4918566;28;45341;-44
2022/07/13 00:19:51;;;;;;;;;11.25;9.50;;;;;26.55;31.54;101689.97;4918908;28;45312;-46
2022/07/13 00:22:16;;;;;;;;;12.00;10.50;;;;;26.57;32.02;101697.00;4918502;28;45372;-45
2022/07/13 00:24:41;;;;;;;;;11.75;9.25;;;;;26.57;31.53;101691.69;4918301;28;45310;-42
2022/07/13 00:27:07;;;;;;;;;14.25;12.00;;;;;26.58;31.71;101688.91;4918172;28;45381;-42
2022/07/13 00:29:32;;;;;;;;;11.50;10.00;;;;;26.57;31.71;101689.03;4918332;28;45555;-45
2022/07/13 00:31:58;;;;;;;;;10.50;10.50;;;;;26.56;32.11;101685.53;4918369;28;45618;-42
2022/07/13 00:34:23;;;;;;;;;12.75;11.75;;;;;26.57;31.44;101686.38;4918672;28;46750;-44
2022/07/13 00:36:48;;;;;;;;;14.25;11.25;;;;;26.58;31.79;101690.72;4918583;28;45402;-47
2022/07/13 00:39:13;;;;;;;;;9.75;9.00;;;;;26.58;31.78;101696.03;4917921;28;46966;-45
2022/07/13 00:41:46;;;;;;;;;9.25;8.75;;;;;26.57;31.91;101686.38;4918039;28;48460;-45
2022/07/13 00:44:12;;;;;;;;;11.25;9.00;;;;;26.55;31.80;101674.03;4917722;28;46833;-43
2022/07/13 00:46:39;;;;;;;;;11.75;10.50;;;;;26.57;32.20;101681.03;4918177;28;45182;-42
2022/07/13 00:49:05;;;;;;;;;11.75;11.00;;;;;26.55;32.05;101674.03;4916620;28;45276;-42
2022/07/13 00:51:30;;;;;;;;;9.75;9.75;;;;;26.57;32.06;101675.72;4918358;28;45534;-42
2022/07/13 00:53:56;;;;;;;;;14.00;11.00;;;;;26.55;31.99;101676.69;4917808;28;46134;-46
2022/07/13 00:56:23;;;;;;;;;12.75;11.00;;;;;26.57;32.29;101675.72;4918427;28;45544;-42
2022/07/13 00:58:49;;;;;;;;;11.25;10.25;;;;;26.57;32.21;101675.72;4918322;28;45855;-42
2022/07/13 01:01:14;;;;;;;;;9.75;9.75;;;;;26.56;32.11;101664.25;4916802;28;45331;-44
2022/07/13 01:03:39;;;;;;;;;7.25;7.25;;;;;26.56;32.11;101666.91;4918015;28;45230;-43
2022/07/13 01:06:05;;;;;;;;;10.75;10.25;;;;;26.57;32.60;101671.25;4920363;28;53269;-42
2022/07/13 01:08:33;;;;;;;;;10.50;9.75;;;;;26.56;32.10;101666.91;4921480;28;45324;-45
2022/07/13 01:10:58;;;;;;;;;10.75;10.75;;;;;26.57;32.35;101667.75;4921566;28;45515;-42
2022/07/13 01:13:25;;;;;;;;;11.50;9.75;;;;;26.55;32.25;101658.06;4921109;28;46076;-42
2022/07/13 01:15:50;;;;;;;;;10.50;9.75;;;;;26.57;32.55;101667.75;4921501;28;45332;-42
2022/07/13 01:18:16;;;;;;;;;12.25;8.75;;;;;26.56;32.42;101664.25;4921187;28;45452;-42
2022/07/13 01:20:42;;;;;;;;;10.25;9.00;;;;;26.55;31.86;101660.72;4921396;28;45315;-47
2022/07/13 01:23:10;;;;;;;;;9.00;9.00;;;;;26.56;32.15;101664.25;4920753;28;46898;-43
2022/07/13 01:25:36;;;;;;;;;11.25;9.25;;;;;26.55;32.21;101665.22;4921063;28;45833;-43
2022/07/13 01:28:01;;;;;;;;;9.50;8.00;;;;;26.57;32.11;101670.41;4920631;28;45396;-46
2022/07/13 01:30:27;;;;;;;;;9.25;9.25;;;;;26.55;32.48;101663.38;4921314;28;45517;-44
2022/07/13 01:32:52;;;;;;;;;12.25;11.00;;;;;26.56;32.57;101672.22;4921176;28;46174;-42
2022/07/13 01:35:19;;;;;;;;;10.25;9.25;;;;;26.56;32.24;101672.22;4920631;28;45389;-43
2022/07/13 01:37:46;;;;;;;;;11.25;8.50;;;;;26.57;32.59;101665.09;4921027;28;45325;-44
2022/07/13 01:40:13;;;;;;;;;8.00;7.50;;;;;26.54;32.42;101661.69;4920878;28;45366;-43
2022/07/13 01:42:41;;;;;;;;;8.75;7.00;;;;;26.55;32.48;101658.06;4920678;28;46313;-42
2022/07/13 01:45:08;;;;;;;;;7.00;7.00;;;;;26.57;32.70;101662.44;4920520;28;45364;-46
2022/07/13 01:47:41;;;;;;;;;10.50;10.00;;;;;26.56;32.27;101653.63;4920782;28;45394;-43
2022/07/13 01:50:08;;;;;;;;;8.25;8.25;;;;;26.55;32.64;101652.75;4920836;28;45290;-42
2022/07/13 01:52:35;;;;;;;;;7.75;7.75;;;;;26.57;32.45;101657.97;4920545;28;45340;-44
2022/07/13 01:55:02;;;;;;;;;6.00;5.25;;;;;26.56;32.58;101656.28;4920400;28;45776;-42
2022/07/13 01:57:27;;;;;;;;;8.25;8.25;;;;;26.54;32.53;101653.72;4920745;28;45288;-49
2022/07/13 01:59:56;;;;;;;;;10.00;9.00;;;;;26.55;32.41;101660.72;4921156;28;45624;-45
2022/07/13 02:02:22;;;;;;;;;8.50;8.50;;;;;26.55;32.43;101652.75;4920744;28;45393;-51
2022/07/13 02:04:47;;;;;;;;;8.50;8.50;;;;;26.55;32.37;101650.09;4920571;28;45398;-45
2022/07/13 02:07:12;;;;;;;;;8.50;8.50;;;;;26.56;32.61;101650.97;4920416;28;45352;-48
2022/07/13 02:09:38;;;;;;;;;8.25;8.00;;;;;26.54;32.53;101635.09;4920043;28;45819;-46
2022/07/13 02:12:03;;;;;;;;;7.25;7.25;;;;;26.54;32.78;101629.78;4920126;28;47043;-42
2022/07/13 02:14:28;;;;;;;;;7.25;7.25;;;;;26.54;32.98;101636.91;4920386;28;45503;-45
2022/07/13 02:16:54;;;;;;;;;8.50;8.00;;;;;26.55;32.84;101639.47;4919925;28;46188;-42
2022/07/13 02:19:19;;;;;;;;;9.75;9.75;;;;;26.55;33.01;101631.50;4920887;28;45534;-50
2022/07/13 02:21:46;;;;;;;;;10.25;9.00;;;;;26.55;32.91;101628.81;4920246;28;47297;-49
2022/07/13 02:24:11;;;;;;;;;11.75;10.00;;;;;26.55;32.73;101626.16;4919990;28;45368;-47
2022/07/13 02:26:36;;;;;;;;;14.00;8.00;;;;;26.57;32.91;101622.56;4920459;28;45356;-44
2022/07/13 02:29:02;;;;;;;;;9.00;9.00;;;;;26.57;32.97;101619.91;4919548;28;49202;-42
2022/07/13 02:31:27;;;;;;;;;9.75;8.75;;;;;26.57;32.64;101619.91;4920011;28;46037;-42
2022/07/13 02:33:52;;;;;;;;;8.75;8.75;;;;;26.56;32.89;101624.38;4920447;28;45328;-42
2022/07/13 02:36:17;;;;;;;;;10.25;9.00;;;;;26.55;32.83;101620.03;4919574;28;50705;-41
2022/07/13 02:38:43;;;;;;;;;10.25;9.25;;;;;26.56;32.75;101616.41;4920289;28;45408;-42
2022/07/13 02:41:08;;;;;;;;;7.50;6.25;;;;;26.55;32.55;101620.84;4919667;28;48349;-43
2022/07/13 02:43:33;;;;;;;;;8.50;7.25;;;;;26.55;32.42;101617.34;4919927;28;45890;-42
2022/07/13 02:45:59;;;;;;;;;12.25;8.50;;;;;26.54;32.42;101613.84;4919785;28;45337;-43
2022/07/13 02:48:24;;;;;;;;;10.50;9.50;;;;;26.55;32.05;101615.53;4920109;28;45202;-42
2022/07/13 02:50:49;;;;;;;;;10.00;8.50;;;;;26.54;32.68;101623.63;4919964;28;45247;-42
2022/07/13 02:53:15;;;;;;;;;10.00;10.00;;;;;26.53;31.97;101614.78;4919592;28;45169;-41
2022/07/13 02:55:40;;;;;;;;;11.25;9.00;;;;;26.54;32.05;101620.97;4919595;28;47922;-43
2022/07/13 02:58:05;;;;;;;;;9.25;9.25;;;;;26.53;32.30;101617.44;4919591;28;45627;-44
2022/07/13 03:00:31;;;;;;;;;10.00;9.50;;;;;26.54;32.17;101611.19;4919403;28;54800;-43
2022/07/13 03:02:56;;;;;;;;;12.25;7.50;;;;;26.53;32.34;101612.13;4919343;28;45255;-41
2022/07/13 03:05:23;;;;;;;;;10.00;8.50;;;;;26.53;32.12;101605.97;4920133;28;45375;-43
2022/07/13 03:07:49;;;;;;;;;10.75;10.00;;;;;26.53;32.09;101620.09;4920300;28;45553;-41
2022/07/13 03:10:14;;;;;;;;;11.50;9.50;;;;;26.52;32.23;101612.25;4919207;28;46263;-42
2022/07/13 03:12:40;;;;;;;;;9.50;8.75;;;;;26.53;32.15;101612.13;4918198;28;45347;-42
2022/07/13 03:15:06;;;;;;;;;12.25;10.25;;;;;26.53;32.36;101619.25;4919358;28;45478;-43
2022/07/13 03:17:31;;;;;;;;;9.25;7.50;;;;;26.51;32.19;101614.03;4919747;28;45383;-43
2022/07/13 03:19:57;;;;;;;;;9.00;9.00;;;;;26.51;32.00;101616.69;4919158;28;46938;-42
2022/07/13 03:22:22;;;;;;;;;8.75;7.75;;;;;26.51;31.73;101619.34;4919611;28;45313;-42
2022/07/13 03:24:47;;;;;;;;;9.00;8.75;;;;;26.52;32.20;101620.22;4918268;28;45448;-44
2022/07/13 03:27:13;;;;;;;;;12.25;8.75;;;;;26.50;31.96;101615.03;4918283;28;45490;-43
2022/07/13 03:29:38;;;;;;;;;10.00;9.33;;;;;26.50;31.67;101617.69;4918781;28;59461;-47
2022/07/13 03:32:04;;;;;;;;;13.75;9.00;;;;;26.50;32.01;101607.03;4901899;28;47944;-48
2022/07/13 03:34:29;;;;;;;;;9.25;8.50;;;;;26.50;32.01;101616.81;4919487;28;45185;-44
2022/07/13 03:36:54;;;;;;;;;6.75;6.75;;;;;26.48;31.75;101611.59;4919388;28;45304;-45
2022/07/13 03:39:19;;;;;;;;;11.00;8.25;;;;;26.48;31.26;101616.94;4919277;28;45334;-41
2022/07/13 03:41:45;;;;;;;;;7.25;7.25;;;;;26.49;31.31;101615.97;4918788;28;53988;-44
2022/07/13 03:44:12;;;;;;;;;8.00;7.00;;;;;26.48;31.57;101613.41;4919024;28;45316;-47
2022/07/13 03:46:38;;;;;;;;;8.50;7.00;;;;;26.47;31.38;101617.88;4919444;28;45422;-43
2022/07/13 03:49:03;;;;;;;;;8.75;7.00;;;;;26.47;31.38;101617.88;4918670;28;46212;-44
2022/07/13 03:51:28;;;;;;;;;6.50;6.50;;;;;26.46;31.63;101616.19;4919203;28;45272;-42
2022/07/13 03:53:53;;;;;;;;;7.00;7.00;;;;;26.47;31.41;101617.00;4918819;28;45471;-43
2022/07/13 03:56:19;;;;;;;;;6.25;5.50;;;;;26.46;31.65;101618.00;4919593;28;45311;-42
2022/07/13 03:58:44;;;;;;;;;7.00;7.00;;;;;26.46;31.65;101621.50;4918821;28;45384;-42
2022/07/13 04:01:09;;;;;;;;;9.00;6.00;;;;;26.45;31.63;101630.41;4918613;28;45297;-44
2022/07/13 04:03:35;;;;;;;;;7.50;6.00;;;;;26.44;31.60;101622.56;4919012;28;45369;-43
2022/07/13 04:06:00;;;;;;;;;7.75;6.50;;;;;26.45;31.71;101627.75;4918761;28;45615;-45
2022/07/13 04:08:25;;;;;;;;;6.50;6.25;;;;;26.43;31.75;101623.50;4918077;28;45435;-44
2022/07/13 04:10:51;;;;;;;;;6.50;6.50;;;;;26.43;31.30;101632.31;4919000;28;45410;-49
2022/07/13 04:13:16;;;;;;;;;6.00;4.75;;;;;26.43;31.61;101632.31;4901383;28;45432;-44
2022/07/13 04:15:41;;;;;;;;;7.00;6.25;;;;;26.43;31.35;101632.31;4918675;28;45378;-43
2022/07/13 04:18:07;;;;;;;;;6.25;6.25;;;;;26.42;31.95;101635.94;4917969;28;56565;-45
2022/07/13 04:20:32;;;;;;;;;6.75;6.00;;;;;26.42;31.84;101627.97;4918583;28;45300;-44
2022/07/13 04:22:58;;;;;;;;;8.00;6.50;;;;;26.42;31.95;101620.00;4918387;28;45345;-45
2022/07/13 04:25:23;;;;;;;;;6.00;6.00;;;;;26.42;31.92;101627.97;4919208;28;45478;-44
2022/07/13 04:27:49;;;;;;;;;9.50;6.00;;;;;26.42;31.79;101617.34;4918503;28;45992;-42
2022/07/13 04:30:14;;;;;;;;;6.25;6.00;;;;;26.42;32.08;101620.00;4918213;28;45378;-44
2022/07/13 04:32:39;;;;;;;;;6.50;6.50;;;;;26.41;31.68;101612.97;4918504;28;45590;-46
2022/07/13 04:35:05;;;;;;;;;9.00;6.00;;;;;26.42;31.71;101614.69;4918466;28;45314;-41
2022/07/13 04:37:30;;;;;;;;;5.00;5.00;;;;;26.42;31.44;101614.69;4918183;28;46269;-43
2022/07/13 04:39:56;;;;;;;;;6.75;6.75;;;;;26.42;31.62;101619.16;4916977;28;45336;-43
2022/07/13 04:42:21;;;;;;;;;6.00;6.00;;;;;26.41;32.07;101607.66;4918456;28;49862;-41
2022/07/13 04:44:46;;;;;;;;;8.25;8.00;;;;;26.40;31.92;101605.97;4918348;28;45169;-42
2022/07/13 04:47:12;;;;;;;;;5.25;5.25;;;;;26.43;31.97;101605.75;4917980;28;45358;-45
2022/07/13 04:49:37;;;;;;;;;7.25;6.00;;;;;26.42;31.63;101613.84;4917955;28;47163;-42
2022/07/13 04:52:02;;;;;;;;;10.25;6.75;;;;;26.42;31.78;101609.34;4917356;28;58535;-43
2022/07/13 04:54:28;;;;;;;;;7.00;7.00;;;;;26.41;31.78;101612.97;4917621;28;45181;-44
2022/07/13 04:56:53;;;;;;;;;8.50;5.75;;;;;26.42;31.73;101605.88;4917991;28;45343;-45
2022/07/13 04:59:18;;;;;;;;;9.75;7.00;;;;;26.42;32.28;101614.69;4918401;28;45494;-42
2022/07/13 05:01:44;;;;;;;;;7.75;6.50;;;;;26.42;31.79;101609.34;4918144;28;45490;-41
2022/07/13 05:04:09;;;;;;;;;11.75;7.75;;;;;26.42;32.21;101616.50;4918009;28;45338;-42
2022/07/13 05:06:34;;;;;;;;;7.00;6.00;;;;;26.42;31.87;101619.16;4917958;28;45341;-43
2022/07/13 05:09:00;;;;;;;;;6.00;6.00;;;;;26.42;31.96;101619.16;4917441;28;45453;-42
2022/07/13 05:11:26;;;;;;;;;6.50;6.00;;;;;26.41;31.91;101617.44;4918080;28;45410;-42
2022/07/13 05:13:52;;;;;;;;;6.00;6.00;;;;;26.41;32.11;101618.28;4918418;28;45628;-41
2022/07/13 05:16:18;;;;;;;;;5.75;5.75;;;;;26.41;31.66;101618.28;4917841;28;45337;-42
2022/07/13 05:18:43;;;;;;;;;8.00;6.00;;;;;26.42;32.10;101629.78;4900836;28;45462;-46
2022/07/13 05:21:10;;;;;;;;;6.25;6.25;;;;;26.42;31.89;101632.44;4917684;28;45715;-45
2022/07/13 05:23:35;;;;;;;;;5.50;5.50;;;;;26.41;32.22;101625.41;4918090;28;45589;-43
2022/07/13 05:26:01;;;;;;;;;7.75;7.75;;;;;26.42;31.99;101622.66;4917429;28;45476;-42
2022/07/13 05:28:26;;;;;;;;;8.25;6.00;;;;;26.41;32.11;101615.63;4917465;28;45370;-43
2022/07/13 05:30:52;;;;;;;;;7.50;7.00;;;;;26.41;32.10;101634.22;4917840;28;45395;-41
2022/07/13 05:33:19;;;;;;;;;6.25;5.50;;;;;26.40;31.85;101624.59;4918047;28;45341;-44
2022/07/13 05:35:44;;;;;;;;;7.25;6.00;;;;;26.43;31.90;101634.16;4917542;28;47182;-44
2022/07/13 05:38:10;;;;;;;;;10.00;7.00;;;;;26.41;31.80;101628.91;4917268;28;45427;-44
2022/07/13 05:40:35;;;;;;;;;8.00;5.50;;;;;26.42;31.87;101629.78;4917628;28;45437;-42
2022/07/13 05:43:00;;;;;;;;;7.00;6.75;;;;;26.39;31.88;101634.34;4917547;28;45326;-42
2022/07/13 05:45:26;;;;;;;;;6.50;6.25;;;;;26.41;31.40;101639.56;4917437;28;46098;-46
2022/07/13 05:47:51;;;;;;;;;8.75;7.00;;;;;26.41;31.91;101642.22;4917682;28;45256;-42
2022/07/13 05:50:17;;;;;;;;;6.00;5.25;;;;;26.41;31.42;101631.56;4917925;28;45294;-43
2022/07/13 05:52:43;;;;;;;;;6.00;6.00;;;;;26.40;32.10;101629.91;4921112;28;45435;-44
2022/07/13 05:55:09;;;;;;;;;6.00;4.75;;;;;26.41;31.69;101633.41;4920215;28;46113;-44
2022/07/13 05:57:35;;;;;;;;;6.50;6.00;;;;;26.41;31.72;101634.22;4903355;28;45349;-44
2022/07/13 06:00:02;;;;;;;;;7.50;6.00;;;;;26.41;31.55;101641.38;4920465;28;45486;-42
2022/07/13 06:02:27;;;;;;;;;6.00;5.25;;;;;26.41;31.35;101636.88;4920774;28;45583;-47
2022/07/13 06:04:53;;;;;;;;;9.75;8.00;;;;;26.43;31.40;101642.13;4920557;28;46228;-46
2022/07/13 06:07:18;;;;;;;;;10.00;7.25;;;;;26.42;31.66;101638.59;4920122;28;48586;-47
2022/07/13 06:09:43;;;;;;;;;8.50;5.25;;;;;26.45;31.70;101645.53;4920516;28;45504;-51
2022/07/13 06:12:09;;;;;;;;;7.75;5.25;;;;;26.46;31.63;101648.06;4920166;28;45539;-48
2022/07/13 06:14:34;;;;;;;;;5.25;4.75;;;;;26.47;31.79;101644.47;4903112;28;48422;-45
2022/07/13 06:16:59;;;;;;;;;8.50;6.00;;;;;26.46;31.78;101642.75;4920136;28;45379;-51
2022/07/13 06:19:25;;;;;;;;;6.75;4.50;;;;;26.47;31.65;101641.81;4920795;28;45673;-46
2022/07/13 06:21:50;;;;;;;;;5.50;5.50;;;;;26.48;31.54;101646.16;4920505;28;45342;-44
2022/07/13 06:24:16;;;;;;;;;6.00;6.00;;;;;26.49;31.68;101650.53;4919980;28;46116;-43
2022/07/13 06:26:41;;;;;;;;;7.00;5.00;;;;;26.50;31.77;101646.91;4920140;28;45320;-43
2022/07/13 06:29:06;;;;;;;;;6.25;6.25;;;;;26.50;31.86;101649.56;4919864;28;45823;-44
2022/07/13 06:31:32;;;;;;;;;7.00;6.00;;;;;26.51;31.68;101648.59;4903309;28;45454;-43
2022/07/13 06:33:57;;;;;;;;;8.75;7.75;;;;;26.51;31.88;101643.28;4919837;28;45972;-42
2022/07/13 06:36:23;;;;;;;;;6.50;6.50;;;;;26.53;31.80;101649.34;4920238;28;45425;-45
2022/07/13 06:38:49;;;;;;;;;7.00;5.25;;;;;26.55;31.82;101646.59;4920274;28;45332;-43
2022/07/13 06:41:15;;;;;;;;;4.00;4.00;;;;;26.55;32.06;101647.44;4920104;28;45245;-47
2022/07/13 06:43:40;;;;;;;;;5.75;5.75;;;;;26.58;32.16;101645.53;4920030;28;46192;-41
2022/07/13 06:46:06;;;;;;;;;7.75;6.50;;;;;26.58;32.14;101637.56;4919704;28;45468;-45
2022/07/13 06:48:31;;;;;;;;;6.25;6.25;;;;;26.59;32.13;101634.78;4920039;28;45328;-43
2022/07/13 06:50:56;;;;;;;;;7.50;6.25;;;;;26.61;32.08;101640.00;4920008;28;45657;-43
2022/07/13 06:53:22;;;;;;;;;6.75;5.00;;;;;26.62;31.75;101641.72;4919838;28;52792;-46
2022/07/13 06:55:47;;;;;;;;;8.75;6.75;;;;;26.65;31.85;101641.47;4919830;28;45404;-43
2022/07/13 06:58:13;;;;;;;;;7.00;6.75;;;;;26.66;32.31;101633.41;4919735;28;45383;-42
2022/07/13 07:00:38;;;;;;;;;6.00;6.00;;;;;26.65;32.08;101630.84;4919887;28;45665;-44
2022/07/13 07:03:03;;;;;;;;;7.75;6.00;;;;;26.70;31.85;101652.66;4918325;28;45560;-43
2022/07/13 07:05:29;;;;;;;;;9.00;7.25;;;;;26.71;32.17;101641.06;4902539;28;45542;-42
2022/07/13 07:07:54;;;;;;;;;6.75;5.50;;;;;26.73;32.45;101644.50;4919778;28;45321;-45
2022/07/13 07:10:19;;;;;;;;;9.25;5.50;;;;;26.74;32.29;101645.31;4919839;28;45674;-46
2022/07/13 07:12:45;;;;;;;;;8.00;6.75;;;;;26.75;31.86;101650.53;4919490;28;48378;-43
2022/07/13 07:15:10;;;;;;;;;8.00;5.50;;;;;26.76;32.10;101649.56;4918829;28;54967;-45
2022/07/13 07:17:46;;;;;;;;;7.00;7.00;;;;;26.77;32.20;101645.94;4919655;28;45385;-48
2022/07/13 07:20:12;;;;;;;;;7.00;5.75;;;;;26.78;32.03;101649.50;4919486;28;45877;-47
2022/07/13 07:22:38;;;;;;;;;11.75;9.50;;;;;26.78;31.71;101642.38;4919315;28;46425;-42
2022/07/13 07:25:03;;;;;;;;;7.25;7.25;;;;;26.79;31.68;101649.41;4919066;28;45433;-42
2022/07/13 07:27:29;;;;;;;;;5.00;5.00;;;;;26.82;32.36;101637.69;4919192;28;45494;-43
2022/07/13 07:29:54;;;;;;;;;7.25;5.00;;;;;26.87;31.97;101645.34;4919604;28;45396;-43
2022/07/13 07:32:19;;;;;;;;;10.50;8.00;;;;;26.83;31.92;101640.25;4919222;28;45345;-42
2022/07/13 07:34:45;;;;;;;;;10.50;7.00;;;;;26.89;31.92;101651.41;4919200;28;45494;-45
2022/07/13 07:37:10;;;;;;;;;4.75;4.75;;;;;26.90;32.27;101650.44;4919112;28;45213;-42
2022/07/13 07:39:36;;;;;;;;;7.25;5.25;;;;;26.90;31.78;101645.13;4919350;28;45219;-46
2022/07/13 07:42:03;;;;;;;;;6.75;5.25;;;;;26.90;31.74;101642.47;4918723;28;46649;-42
2022/07/13 07:44:29;;;;;;;;;5.50;4.75;;;;;26.89;32.39;101644.28;4919451;28;45717;-45
2022/07/13 07:46:55;;;;;;;;;8.50;5.00;;;;;26.89;31.91;101638.09;4919183;28;45380;-44
2022/07/13 07:49:20;;;;;;;;;5.00;5.00;;;;;26.90;32.04;101640.66;4919141;28;45316;-44
2022/07/13 07:51:45;;;;;;;;;5.75;5.75;;;;;26.91;32.00;101638.84;4918791;28;46605;-42
2022/07/13 07:54:10;;;;;;;;;6.00;5.75;;;;;26.89;32.09;101633.66;4918525;28;48101;-42
2022/07/13 07:56:36;;;;;;;;;5.50;5.00;;;;;26.90;31.97;101637.16;4919068;28;45387;-46
2022/07/13 07:59:01;;;;;;;;;6.25;5.00;;;;;26.91;31.97;101636.19;4918757;28;45450;-49
2022/07/13 08:01:27;;;;;;;;;9.00;5.25;;;;;26.91;32.05;101641.50;4902017;28;46030;-42
2022/07/13 08:03:54;;;;;;;;;8.75;5.50;;;;;26.91;32.32;101633.53;4918454;28;45874;-43
2022/07/13 08:06:19;;;;;;;;;8.25;5.50;;;;;26.91;31.99;101625.56;4918876;28;45356;-44
2022/07/13 08:08:44;;;;;;;;;5.75;5.75;;;;;26.90;32.21;101634.50;4918953;28;45418;-45
2022/07/13 08:11:10;;;;;;;;;8.75;7.25;;;;;26.91;32.10;101636.19;4917914;28;45461;-42
2022/07/13 08:13:36;;;;;;;;;6.50;6.50;;;;;26.92;32.04;101635.25;4917534;28;45729;-42
2022/07/13 08:16:02;;;;;;;;;5.75;5.75;;;;;26.90;32.42;101630.00;4918300;28;45376;-47
2022/07/13 08:18:28;;;;;;;;;6.75;5.00;;;;;26.91;31.94;101630.88;4918968;28;45221;-42
2022/07/13 08:20:53;;;;;;;;;5.25;5.25;;;;;26.90;31.99;101635.31;4918126;28;46264;-43
2022/07/13 08:26:02;;;;;;;;;6.25;5.25;;;;;26.91;32.28;101625.56;4918402;28;45294;-48
2022/07/13 08:28:28;;;;;;;;;5.50;4.50;;;;;26.91;32.23;101634.38;4918758;28;45326;-46
2022/07/13 08:30:53;;;;;;;;;8.75;6.00;;;;;26.92;32.04;101637.91;4917814;28;46147;-45
2022/07/13 08:33:18;;;;;;;;;4.75;4.75;;;;;26.91;32.30;101638.84;4918434;28;45283;-51
2022/07/13 11:39:26;;;;;;;;;6.25;5.00;;;;;27.21;32.46;101584.41;5051353;23;45377;-55
2022/07/13 11:41:53;;;;;;;;;5.75;4.50;;;;;27.21;32.18;101563.13;4918786;28;45344;-57
2022/07/13 11:44:22;;;;;;;;;7.75;6.25;;;;;27.22;32.31;101564.81;4919332;28;45168;-57
2022/07/13 11:46:47;;;;;;;;;4.00;4.00;;;;;27.23;32.23;101566.53;4917752;28;47106;-59
2022/07/13 11:49:13;;;;;;;;;4.00;4.00;;;;;27.25;32.33;101569.94;4921657;28;45777;-54
2022/07/13 11:51:41;;;;;;;;;5.00;4.00;;;;;27.26;32.48;101561.00;4920151;28;45566;-57
2022/07/13 11:54:12;;;;;;;;;5.25;5.00;;;;;27.27;32.40;101562.69;4905229;28;45382;-56
2022/07/13 11:56:50;;;;;;;;;5.00;4.50;;;;;27.27;32.32;101552.03;4924411;28;46162;-55
2022/07/13 11:59:39;;;;;;;;;4.50;4.00;;;;;27.30;32.61;101551.78;4925069;28;45761;-56
2022/07/13 12:02:09;;;;;;;;;5.25;5.00;;;;;27.30;32.59;101543.81;4917476;28;45360;-56
2022/07/13 12:04:46;;;;;;;;;4.75;4.00;;;;;27.30;32.45;101552.66;4921912;28;45363;-58
2022/07/13 12:07:19;;;;;;;;;5.00;3.00;;;;;27.31;32.45;101545.50;4925962;28;46100;-61
2022/07/13 12:09:59;;;;;;;;;4.00;4.00;;;;;27.32;32.50;101549.88;4918741;28;45403;-59
2022/07/13 12:12:36;;;;;;;;;5.25;4.25;;;;;27.33;32.46;101546.25;4919035;28;45177;-58
2022/07/13 12:15:03;;;;;;;;;4.50;4.50;;;;;27.33;32.60;101540.09;4921422;28;45445;-59
2022/07/13 12:17:40;;;;;;;;;5.00;4.25;;;;;27.35;32.68;101544.34;4921429;28;46157;-61
2022/07/13 12:20:12;;;;;;;;;6.25;5.00;;;;;27.37;32.78;101534.44;4918580;28;45294;-61
2022/07/13 12:22:37;;;;;;;;;5.50;4.50;;;;;27.37;32.66;101537.09;4918974;28;45529;-59
2022/07/13 12:25:03;;;;;;;;;4.00;4.00;;;;;27.39;32.58;101537.84;4927469;28;45374;-57
2022/07/13 12:27:29;;;;;;;;;4.50;4.50;;;;;27.40;32.79;101536.84;4939686;28;46020;-59
2022/07/13 12:30:15;;;;;;;;;3.25;3.25;;;;;27.39;32.60;101523.66;4921685;28;46208;-54
2022/07/13 12:33:01;;;;;;;;;6.50;5.00;;;;;27.40;32.77;101526.19;4918852;28;45377;-54
2022/07/13 12:35:36;;;;;;;;;5.50;5.00;;;;;27.40;32.75;101517.38;4918660;28;45494;-53
2022/07/13 12:38:04;;;;;;;;;4.50;4.00;;;;;27.41;33.01;101525.22;4917518;28;45357;-56
2022/07/13 12:40:40;;;;;;;;;5.50;4.25;;;;;27.42;33.04;101529.59;4920600;28;45750;-55
2022/07/13 12:43:26;;;;;;;;;4.00;4.00;;;;;27.42;32.93;101516.28;4921996;28;45353;-56
2022/07/13 12:45:52;;;;;;;;;5.00;5.00;;;;;27.43;32.84;101512.66;4918415;28;45479;-56
2022/07/13 12:48:22;;;;;;;;;3.00;3.00;;;;;27.44;32.80;101522.38;4921572;28;46099;-56
2022/07/13 12:51:06;;;;;;;;;5.00;4.00;;;;;27.44;32.77;101510.91;4925306;28;45716;-54
2022/07/13 12:53:52;;;;;;;;;6.00;6.00;;;;;27.44;32.77;101511.75;4925538;28;45276;-53
2022/07/13 12:56:20;;;;;;;;;4.25;4.25;;;;;27.45;32.88;101516.09;4925632;28;45157;-56
2022/07/13 12:58:51;;;;;;;;;6.00;4.50;;;;;27.45;32.76;101501.97;4925729;28;45385;-56
2022/07/13 13:01:30;;;;;;;;;6.00;4.25;;;;;27.45;32.67;101494.81;4922505;28;45209;-55
2022/07/13 13:04:00;;;;;;;;;5.00;5.00;;;;;27.47;32.92;101489.34;4921244;28;45379;-55
2022/07/13 13:06:26;;;;;;;;;4.00;4.00;;;;;27.47;32.99;101500.00;4922468;28;45355;-54
2022/07/13 13:09:08;;;;;;;;;4.00;4.00;;;;;27.47;32.92;101492.00;4924923;28;46133;-55
2022/07/13 13:11:34;;;;;;;;;5.00;5.00;;;;;27.48;32.93;101485.72;4940140;28;45487;-54
2022/07/13 13:14:00;;;;;;;;;7.25;4.75;;;;;27.49;32.86;101483.94;4947275;28;44734;-55
2022/07/13 13:16:26;;;;;;;;;4.50;4.25;;;;;27.49;33.11;101486.59;4947492;28;45709;-54
2022/07/13 13:18:51;;;;;;;;;5.00;4.75;;;;;27.52;32.89;101483.69;4926474;28;46223;-57
2022/07/13 13:21:17;;;;;;;;;5.00;5.00;;;;;27.52;32.99;101481.88;4926418;28;45306;-55
2022/07/13 13:23:42;;;;;;;;;5.00;5.00;;;;;27.52;32.99;101471.22;4927945;28;45668;-53
2022/07/13 13:26:08;;;;;;;;;5.25;5.25;;;;;27.53;32.83;101472.94;4908563;28;45255;-54
2022/07/13 13:30:43;;;;;;;;;4.00;4.00;;;;;27.54;32.88;101481.75;4940598;28;46198;-53
2022/07/13 13:31:19;;;;;;;;;5.00;5.00;;;;;27.54;32.85;101465.78;4927285;28;45419;-51
2022/07/13 13:33:44;;;;;;;;;5.25;5.25;;;;;27.55;32.84;101480.78;4928691;28;45353;-54
2022/07/13 13:36:09;;;;;;;;;7.00;6.00;;;;;27.55;32.65;101467.47;4910826;28;46159;-54
2022/07/13 13:38:35;;;;;;;;;6.00;6.00;;;;;27.56;32.76;101467.34;4924180;28;46070;-54
2022/07/13 13:41:00;;;;;;;;;5.25;5.25;;;;;27.56;32.71;101461.19;4924413;28;48936;-56
2022/07/13 13:43:26;;;;;;;;;5.25;5.25;;;;;27.56;32.97;101455.88;4925147;28;45439;-55
2022/07/13 13:45:51;;;;;;;;;7.75;6.50;;;;;27.57;32.78;101450.41;4923876;28;45440;-54
2022/07/13 13:48:16;;;;;;;;;8.00;8.00;;;;;27.57;32.93;101447.75;4921825;28;46148;-53
2022/07/13 13:50:42;;;;;;;;;6.50;6.50;;;;;27.59;32.68;101455.66;4920316;28;45399;-55
2022/07/13 13:53:07;;;;;;;;;8.00;6.00;;;;;27.59;32.78;101450.31;4920636;28;45523;-56
2022/07/13 13:55:33;;;;;;;;;5.75;5.75;;;;;27.59;32.62;101445.00;4903551;28;45399;-53
2022/07/13 13:57:58;;;;;;;;;6.00;5.00;;;;;27.60;32.66;101441.38;4920665;28;46308;-53
2022/07/13 14:00:23;;;;;;;;;7.50;7.50;;;;;27.61;32.87;101443.91;4924550;28;45358;-56
2022/07/13 14:02:49;;;;;;;;;6.25;6.25;;;;;27.62;32.80;101431.44;4922461;28;45268;-57
2022/07/13 14:05:14;;;;;;;;;6.25;6.25;;;;;27.61;32.64;101435.91;4920675;28;45283;-55
2022/07/13 14:07:40;;;;;;;;;5.00;5.00;;;;;27.63;32.63;101438.44;4920487;28;46083;-54
2022/07/13 14:10:06;;;;;;;;;5.75;4.50;;;;;27.63;32.68;101430.47;4920209;28;45421;-55
2022/07/13 14:12:32;;;;;;;;;6.25;6.25;;;;;27.64;32.76;101432.16;4920134;28;45250;-55
2022/07/13 14:14:57;;;;;;;;;5.50;5.50;;;;;27.65;32.66;101428.53;4920476;28;45352;-52
2022/07/13 14:17:22;;;;;;;;;8.25;5.75;;;;;27.66;32.54;101418.75;4920283;28;45328;-56
2022/07/13 14:19:48;;;;;;;;;8.00;6.50;;;;;27.66;32.37;101421.41;4920270;28;45352;-56
2022/07/13 14:22:13;;;;;;;;;8.00;6.50;;;;;27.66;32.45;101416.91;4920481;28;45270;-61
2022/07/13 14:24:38;;;;;;;;;7.50;5.75;;;;;27.67;32.37;101420.44;4921995;28;45219;-55
2022/07/13 14:27:04;;;;;;;;;4.00;4.00;;;;;27.67;32.47;101415.13;4924099;28;46154;-60